createdAt,value
2019-05-28T00:01:32.464Z,14.20
2019-05-28T00:04:08.605Z,14.30
2019-05-28T00:06:45.000Z,14.20
2019-05-28T00:09:21.240Z,14.20
2019-05-28T00:11:57.621Z,14.20
2019-05-28T00:14:33.504Z,14.20
2019-05-28T00:17:03.033Z,14.30
2019-05-28T00:19:32.480Z,14.30
2019-05-28T00:22:08.097Z,14.30
2019-05-28T00:24:44.115Z,14.30
2019-05-28T00:27:13.699Z,14.30
2019-05-28T00:29:49.385Z,14.30
2019-05-28T00:32:18.911Z,14.30
2019-05-28T00:34:55.392Z,14.30
2019-05-28T00:37:24.839Z,14.20
2019-05-28T00:40:02.653Z,14.20
2019-05-28T00:42:38.344Z,14.10
2019-05-28T00:45:17.178Z,14.20
2019-05-28T00:47:46.773Z,14.20
2019-05-28T00:50:23.142Z,14.10
2019-05-28T00:52:52.790Z,14.10
2019-05-28T00:55:29.279Z,14.00
2019-05-28T00:57:59.935Z,14.00
2019-05-28T01:00:43.326Z,14.00
2019-05-28T01:03:18.946Z,14.10
2019-05-28T01:05:55.817Z,14.10
2019-05-28T01:08:31.915Z,14.20
2019-05-28T01:11:14.317Z,14.30
2019-05-28T01:13:49.909Z,14.30
2019-05-28T01:16:26.091Z,14.30
2019-05-28T01:18:55.551Z,14.40
2019-05-28T01:21:31.617Z,14.40
2019-05-28T01:24:01.065Z,14.40
2019-05-28T01:26:37.016Z,14.30
2019-05-28T01:29:06.670Z,14.30
2019-05-28T01:31:42.346Z,14.20
2019-05-28T01:34:11.888Z,14.10
2019-05-28T01:36:48.419Z,14.10
2019-05-28T01:39:17.933Z,14.20
2019-05-28T01:41:53.508Z,14.20
2019-05-28T01:44:29.111Z,14.10
2019-05-28T01:46:58.624Z,14.20
2019-05-28T01:49:28.074Z,14.10
2019-05-28T01:52:03.851Z,14.20
2019-05-28T01:54:39.431Z,14.10
2019-05-28T01:57:08.900Z,14.10
2019-05-28T01:59:44.930Z,14.00
2019-05-28T02:02:21.195Z,14.00
2019-05-28T02:04:50.858Z,14.10
2019-05-28T02:07:26.764Z,14.00
2019-05-28T02:10:04.084Z,14.00
2019-05-28T02:12:47.147Z,14.00
2019-05-28T02:15:23.612Z,14.00
2019-05-28T02:17:59.467Z,14.10
2019-05-28T02:20:29.043Z,14.00
2019-05-28T02:23:05.174Z,14.00
2019-05-28T02:25:41.621Z,14.00
2019-05-28T02:28:11.137Z,14.00
2019-05-28T02:30:47.197Z,14.00
2019-05-28T02:33:16.735Z,14.00
2019-05-28T02:35:53.424Z,13.90
2019-05-28T02:38:22.945Z,14.00
2019-05-28T02:40:59.155Z,14.00
2019-05-28T02:43:28.667Z,14.00
2019-05-28T02:45:58.125Z,14.00
2019-05-28T02:48:34.468Z,14.10
2019-05-28T02:51:11.918Z,14.20
2019-05-28T02:53:48.383Z,14.20
2019-05-28T02:56:19.429Z,14.20
2019-05-28T02:58:50.288Z,14.10
2019-05-28T03:01:43.009Z,14.20
2019-05-28T03:04:04.110Z,14.20
2019-05-28T03:06:42.128Z,14.30
2019-05-28T03:09:11.566Z,14.20
2019-05-28T03:11:53.752Z,14.30
2019-05-28T03:14:29.644Z,14.20
2019-05-28T03:17:10.781Z,14.10
2019-05-28T03:19:42.231Z,14.20
2019-05-28T03:22:20.921Z,14.30
2019-05-28T03:24:52.489Z,14.20
2019-05-28T03:27:29.085Z,14.20
2019-05-28T03:29:58.692Z,14.10
2019-05-28T03:32:34.697Z,14.20
2019-05-28T03:35:06.455Z,14.20
2019-05-28T03:37:44.184Z,14.00
2019-05-28T03:40:14.259Z,14.00
2019-05-28T03:42:49.953Z,13.90
2019-05-28T03:45:19.533Z,14.00
2019-05-28T03:47:55.724Z,13.90
2019-05-28T03:50:25.176Z,13.90
2019-05-28T03:53:00.809Z,13.90
2019-05-28T03:55:37.313Z,13.90
2019-05-28T03:58:06.909Z,13.80
2019-05-28T04:00:42.910Z,13.80
2019-05-28T04:03:19.039Z,13.80
2019-05-28T04:05:54.644Z,13.80
2019-05-28T04:08:30.849Z,13.70
2019-05-28T04:11:06.800Z,13.70
2019-05-28T04:13:42.721Z,13.70
2019-05-28T04:16:18.310Z,13.70
2019-05-28T04:18:54.077Z,13.70
2019-05-28T04:21:23.523Z,13.80
2019-05-28T04:23:59.574Z,13.80
2019-05-28T04:26:29.107Z,13.80
2019-05-28T04:29:11.823Z,13.80
2019-05-28T04:31:47.306Z,13.90
2019-05-28T04:34:23.561Z,13.80
2019-05-28T04:36:53.012Z,13.90
2019-05-28T04:39:29.548Z,14.00
2019-05-28T04:41:59.003Z,14.00
2019-05-28T04:44:35.140Z,14.00
2019-05-28T04:47:08.275Z,14.10
2019-05-28T04:49:43.211Z,14.10
2019-05-28T04:52:12.660Z,14.10
2019-05-28T04:54:49.058Z,14.10
2019-05-28T04:57:18.821Z,14.10
2019-05-28T04:59:48.263Z,14.10
2019-05-28T05:02:24.554Z,14.20
2019-05-28T05:04:54.077Z,14.20
2019-05-28T05:07:30.556Z,14.30
2019-05-28T05:10:00.005Z,14.30
2019-05-28T05:12:42.619Z,14.30
2019-05-28T05:15:26.259Z,14.40
2019-05-28T05:17:55.777Z,14.40
2019-05-28T05:20:31.922Z,14.50
2019-05-28T05:23:01.371Z,14.50
2019-05-28T05:25:37.918Z,14.50
2019-05-28T05:28:07.507Z,14.50
2019-05-28T05:30:36.954Z,14.50
2019-05-28T05:33:20.049Z,14.40
2019-05-28T05:35:50.795Z,14.60
2019-05-28T05:38:20.238Z,14.60
2019-05-28T05:40:56.792Z,14.50
2019-05-28T05:43:26.326Z,14.50
2019-05-28T05:46:02.775Z,14.40
2019-05-28T05:48:38.885Z,14.40
2019-05-28T05:51:08.339Z,14.50
2019-05-28T05:53:44.824Z,14.40
2019-05-28T05:56:14.337Z,14.40
2019-05-28T05:58:50.172Z,14.50
2019-05-28T06:01:19.628Z,14.60
2019-05-28T06:03:49.095Z,14.60
2019-05-28T06:06:25.366Z,14.60
2019-05-28T06:09:01.731Z,14.60
2019-05-28T06:11:37.309Z,14.60
2019-05-28T06:14:07.162Z,14.50
2019-05-28T06:16:50.120Z,14.50
2019-05-28T06:19:33.326Z,14.60
2019-05-28T06:22:02.849Z,14.50
2019-05-28T06:24:38.497Z,14.40
2019-05-28T06:27:14.964Z,14.40
2019-05-28T06:29:44.892Z,14.40
2019-05-28T06:32:20.870Z,14.40
2019-05-28T06:34:50.402Z,14.50
2019-05-28T06:37:26.888Z,14.50
2019-05-28T06:39:56.478Z,14.60
2019-05-28T06:42:38.140Z,14.70
2019-05-28T06:45:06.661Z,14.90
2019-05-28T06:47:45.384Z,14.90
2019-05-28T06:50:14.380Z,14.90
2019-05-28T06:52:43.980Z,15.00
2019-05-28T06:55:19.659Z,15.10
2019-05-28T06:57:55.292Z,15.20
2019-05-28T07:00:25.159Z,15.20
2019-05-28T07:02:54.673Z,15.10
2019-05-28T07:05:31.125Z,15.10
2019-05-28T07:08:14.288Z,15.10
2019-05-28T07:10:57.539Z,15.00
2019-05-28T07:13:27.566Z,15.00
2019-05-28T07:16:03.373Z,15.10
2019-05-28T07:18:45.400Z,15.00
2019-05-28T07:21:15.009Z,15.00
2019-05-28T07:23:44.552Z,15.10
2019-05-28T07:26:20.166Z,15.10
2019-05-28T07:28:56.661Z,15.10
2019-05-28T07:31:26.125Z,15.10
2019-05-28T07:34:02.553Z,15.10
2019-05-28T07:36:39.058Z,15.30
2019-05-28T07:39:12.129Z,15.30
2019-05-28T07:41:46.005Z,15.30
2019-05-28T07:44:15.469Z,15.30
2019-05-28T07:46:51.941Z,15.30
2019-05-28T07:49:21.452Z,15.30
2019-05-28T07:51:58.232Z,15.30
2019-05-28T07:54:27.753Z,15.30
2019-05-28T07:57:03.783Z,15.40
2019-05-28T07:59:33.236Z,15.30
2019-05-28T08:02:09.649Z,15.40
2019-05-28T08:04:47.560Z,15.40
2019-05-28T08:07:16.568Z,15.40
2019-05-28T08:09:59.616Z,15.50
2019-05-28T08:12:29.075Z,15.60
2019-05-28T08:15:07.999Z,15.70
2019-05-28T08:17:44.558Z,15.80
2019-05-28T08:20:21.121Z,15.90
2019-05-28T08:22:57.599Z,16.00
2019-05-28T08:25:45.306Z,16.00
2019-05-28T08:28:18.627Z,16.10
2019-05-28T08:30:35.673Z,16.10
2019-05-28T08:33:12.281Z,16.10
2019-05-28T08:35:41.732Z,16.10
2019-05-28T08:38:17.656Z,16.10
2019-05-28T08:40:47.241Z,16.10
2019-05-28T08:43:23.677Z,16.10
2019-05-28T08:46:00.331Z,16.20
2019-05-28T08:48:29.851Z,16.30
2019-05-28T08:51:10.092Z,16.30
2019-05-28T08:53:37.791Z,16.30
2019-05-28T08:56:14.037Z,16.20
2019-05-28T08:58:50.441Z,16.20
2019-05-28T09:01:26.710Z,16.20
2019-05-28T09:03:56.226Z,16.10
2019-05-28T09:06:27.210Z,16.10
2019-05-28T09:09:03.336Z,16.10
2019-05-28T09:11:39.465Z,16.10
2019-05-28T09:14:08.995Z,16.20
2019-05-28T09:16:38.487Z,16.30
2019-05-28T09:19:14.990Z,16.10
2019-05-28T09:21:51.006Z,16.00
2019-05-28T09:24:27.923Z,16.00
2019-05-28T09:26:57.533Z,16.00
2019-05-28T09:29:33.962Z,16.00
2019-05-28T09:32:03.568Z,16.00
2019-05-28T09:34:33.088Z,16.00
2019-05-28T09:37:09.171Z,16.00
2019-05-28T09:39:44.581Z,16.00
2019-05-28T09:42:20.287Z,15.90
2019-05-28T09:44:56.170Z,15.90
2019-05-28T09:47:25.700Z,15.90
2019-05-28T09:50:02.069Z,15.90
2019-05-28T09:52:31.676Z,16.00
2019-05-28T09:55:07.350Z,16.00
2019-05-28T09:57:46.792Z,15.70
2019-05-28T10:00:20.562Z,15.70
2019-05-28T10:02:51.424Z,15.70
2019-05-28T10:05:28.231Z,15.60
2019-05-28T10:07:57.689Z,15.60
2019-05-28T10:10:41.284Z,15.60
2019-05-28T10:13:10.809Z,15.50
2019-05-28T10:15:47.125Z,15.40
2019-05-28T10:18:22.954Z,15.50
2019-05-28T10:21:17.615Z,15.60
2019-05-28T10:23:36.563Z,15.70
2019-05-28T10:26:06.231Z,15.80
2019-05-28T10:28:42.379Z,15.80
2019-05-28T10:31:18.888Z,15.80
2019-05-28T10:33:48.333Z,16.00
2019-05-28T10:36:34.460Z,15.90
2019-05-28T10:38:55.787Z,16.00
2019-05-28T10:41:32.472Z,16.10
2019-05-28T10:44:08.974Z,16.00
2019-05-28T10:46:38.429Z,15.90
2019-05-28T10:49:14.819Z,15.80
2019-05-28T10:51:44.341Z,15.60
2019-05-28T10:54:20.239Z,15.80
2019-05-28T10:56:56.018Z,15.70
2019-05-28T10:59:25.487Z,15.80
2019-05-28T11:02:02.095Z,15.90
2019-05-28T11:04:31.724Z,15.80
2019-05-28T11:07:07.330Z,15.70
2019-05-28T11:09:43.429Z,15.80
2019-05-28T11:12:19.178Z,15.70
2019-05-28T11:14:48.760Z,15.60
2019-05-28T11:17:25.426Z,15.60
2019-05-28T11:20:01.911Z,15.50
2019-05-28T11:22:44.863Z,15.40
2019-05-28T11:25:15.637Z,15.40
2019-05-28T11:27:52.578Z,15.50
2019-05-28T11:30:23.815Z,15.60
2019-05-28T11:33:00.498Z,15.50
2019-05-28T11:35:36.364Z,15.50
2019-05-28T11:38:13.285Z,15.50
2019-05-28T11:40:49.494Z,15.40
2019-05-28T11:43:25.595Z,15.40
2019-05-28T11:45:55.265Z,15.10
2019-05-28T11:48:31.799Z,15.10
2019-05-28T11:51:01.351Z,15.20
2019-05-28T11:53:37.737Z,15.30
2019-05-28T11:56:14.356Z,15.30
2019-05-28T11:58:50.941Z,15.40
2019-05-28T12:01:33.978Z,15.30
2019-05-28T12:03:57.949Z,15.10
2019-05-28T12:06:27.460Z,15.10
2019-05-28T12:09:03.201Z,15.20
2019-05-28T12:11:39.776Z,15.30
2019-05-28T12:14:15.700Z,15.30
2019-05-28T12:16:52.253Z,15.20
2019-05-28T12:19:21.779Z,15.20
2019-05-28T12:22:04.947Z,15.10
2019-05-28T12:24:41.203Z,15.00
2019-05-28T12:27:16.751Z,15.10
2019-05-28T12:29:53.098Z,15.30
2019-05-28T12:32:22.566Z,15.30
2019-05-28T12:34:52.096Z,15.50
2019-05-28T12:37:46.476Z,15.60
2019-05-28T12:39:59.475Z,15.50
2019-05-28T12:42:28.907Z,15.60
2019-05-28T12:45:09.292Z,15.60
2019-05-28T12:47:43.644Z,15.50
2019-05-28T12:50:19.900Z,15.60
2019-05-28T12:52:52.283Z,15.70
2019-05-28T12:55:22.874Z,15.80
2019-05-28T12:57:59.561Z,15.90
2019-05-28T13:00:31.146Z,15.90
2019-05-28T13:03:00.817Z,15.80
2019-05-28T13:05:38.019Z,15.50
2019-05-28T13:08:13.845Z,15.30
2019-05-28T13:10:50.463Z,15.20
2019-05-28T13:13:26.465Z,15.30
2019-05-28T13:16:05.141Z,15.30
2019-05-28T13:18:34.745Z,15.30
2019-05-28T13:21:11.554Z,15.10
2019-05-28T13:23:47.586Z,15.20
2019-05-28T13:26:23.587Z,15.00
2019-05-28T13:28:53.120Z,14.90
2019-05-28T13:31:29.586Z,14.90
2019-05-28T13:33:59.345Z,14.70
2019-05-28T13:36:35.450Z,14.80
2019-05-28T13:39:15.866Z,14.50
2019-05-28T13:41:45.317Z,14.40
2019-05-28T13:44:22.965Z,14.30
2019-05-28T13:46:59.127Z,14.50
2019-05-28T13:49:28.595Z,14.60
2019-05-28T13:52:12.136Z,14.30
2019-05-28T13:54:35.793Z,14.20
2019-05-28T13:57:12.412Z,14.30
2019-05-28T13:59:42.022Z,14.50
2019-05-28T14:02:11.478Z,14.50
2019-05-28T14:04:48.094Z,14.50
2019-05-28T14:07:17.965Z,14.40
2019-05-28T14:09:54.713Z,14.50
2019-05-28T14:12:24.263Z,14.40
2019-05-28T14:15:07.493Z,14.40
2019-05-28T14:17:37.259Z,14.40
2019-05-28T14:20:19.554Z,14.50
2019-05-28T14:22:55.256Z,14.30
2019-05-28T14:25:37.460Z,14.20
2019-05-28T14:28:07.268Z,14.20
2019-05-28T14:30:36.933Z,14.20
2019-05-28T14:33:17.073Z,14.20
2019-05-28T14:35:46.806Z,14.00
2019-05-28T14:38:23.274Z,14.00
2019-05-28T14:40:52.963Z,13.80
2019-05-28T14:43:29.460Z,13.80
2019-05-28T14:46:06.221Z,13.90
2019-05-28T14:48:35.836Z,13.70
2019-05-28T14:51:11.861Z,13.70
2019-05-28T14:53:41.438Z,13.70
2019-05-28T14:56:10.917Z,13.70
2019-05-28T14:58:47.437Z,13.70
2019-05-28T15:01:16.901Z,13.80
2019-05-28T15:04:06.434Z,13.80
2019-05-28T15:06:49.339Z,13.60
2019-05-28T15:09:25.178Z,13.60
2019-05-28T15:11:54.713Z,13.40
2019-05-28T15:14:30.319Z,13.20
2019-05-28T15:17:13.764Z,13.40
2019-05-28T15:19:43.376Z,13.20
2019-05-28T15:22:13.050Z,13.20
2019-05-28T15:24:49.921Z,13.10
2019-05-28T15:27:19.653Z,13.10
2019-05-28T15:29:55.651Z,13.10
2019-05-28T15:32:25.178Z,13.10
2019-05-28T15:35:00.870Z,13.10
2019-05-28T15:37:37.419Z,13.10
2019-05-28T15:40:11.069Z,13.20
2019-05-28T15:42:48.429Z,13.30
2019-05-28T15:45:18.216Z,13.20
2019-05-28T15:47:54.746Z,13.20
2019-05-28T15:50:24.489Z,13.00
2019-05-28T15:53:00.949Z,13.10
2019-05-28T15:55:30.413Z,13.00
2019-05-28T15:58:06.589Z,12.80
2019-05-28T16:00:36.250Z,12.70
2019-05-28T16:03:12.962Z,12.70
2019-05-28T16:05:48.565Z,12.40
2019-05-28T16:08:18.400Z,12.70
2019-05-28T16:11:02.036Z,12.70
2019-05-28T16:13:32.953Z,12.80
2019-05-28T16:16:08.718Z,12.90
2019-05-28T16:18:45.188Z,12.90
2019-05-28T16:21:14.633Z,12.90
2019-05-28T16:23:50.408Z,12.80
2019-05-28T16:26:26.472Z,13.00
2019-05-28T16:29:02.399Z,12.90
2019-05-28T16:31:32.144Z,12.90
2019-05-28T16:34:15.135Z,13.00
2019-05-28T16:36:44.608Z,13.10
2019-05-28T16:39:21.312Z,13.10
2019-05-28T16:41:51.327Z,13.10
2019-05-28T16:44:28.149Z,13.10
2019-05-28T16:47:15.256Z,13.20
2019-05-28T16:49:35.311Z,13.40
2019-05-28T16:52:14.815Z,13.30
2019-05-28T16:54:44.495Z,13.50
2019-05-28T16:57:20.778Z,13.40
2019-05-28T16:59:57.368Z,13.20
2019-05-28T17:02:33.269Z,13.30
2019-05-28T17:05:03.124Z,13.20
2019-05-28T17:07:32.732Z,13.40
2019-05-28T17:10:30.763Z,13.40
2019-05-28T17:12:51.561Z,13.50
2019-05-28T17:15:28.560Z,13.50
2019-05-28T17:17:58.178Z,13.60
2019-05-28T17:20:34.850Z,13.70
2019-05-28T17:23:04.510Z,13.60
2019-05-28T17:25:47.962Z,13.50
2019-05-28T17:28:24.395Z,13.50
2019-05-28T17:31:00.133Z,13.40
2019-05-28T17:33:41.406Z,13.40
2019-05-28T17:36:10.930Z,13.40
2019-05-28T17:38:46.979Z,13.20
2019-05-28T17:41:19.797Z,13.20
2019-05-28T17:43:54.969Z,13.30
2019-05-28T17:46:31.493Z,13.40
2019-05-28T17:49:01.041Z,13.40
2019-05-28T17:51:37.597Z,13.40
2019-05-28T17:54:13.517Z,13.30
2019-05-28T17:56:49.688Z,13.40
2019-05-28T17:59:26.288Z,13.30
2019-05-28T18:01:55.958Z,13.40
2019-05-28T18:04:25.505Z,13.40
2019-05-28T18:07:02.188Z,13.30
2019-05-28T18:09:38.092Z,13.20
2019-05-28T18:12:13.841Z,13.20
2019-05-28T18:14:49.880Z,13.20
2019-05-28T18:17:19.564Z,13.20
2019-05-28T18:19:55.347Z,13.20
2019-05-28T18:22:24.910Z,13.10
2019-05-28T18:25:00.950Z,13.20
2019-05-28T18:27:43.418Z,13.20
2019-05-28T18:30:19.130Z,13.20
2019-05-28T18:32:55.160Z,13.20
2019-05-28T18:35:31.882Z,13.00
2019-05-28T18:38:04.452Z,12.90
2019-05-28T18:40:39.969Z,12.80
2019-05-28T18:43:09.505Z,12.90
2019-05-28T18:45:39.268Z,12.70
2019-05-28T18:48:14.998Z,12.70
2019-05-28T18:50:52.486Z,12.80
2019-05-28T18:53:21.954Z,12.70
2019-05-28T18:55:53.111Z,12.70
2019-05-28T18:58:29.982Z,12.80
2019-05-28T19:01:06.551Z,12.70
2019-05-28T19:03:35.988Z,12.70
2019-05-28T19:06:11.901Z,12.70
2019-05-28T19:08:43.317Z,12.70
2019-05-28T19:11:37.226Z,12.80
2019-05-28T19:13:57.828Z,12.80
2019-05-28T19:16:33.569Z,12.80
2019-05-28T19:19:03.103Z,12.90
2019-05-28T19:21:38.854Z,12.90
2019-05-28T19:24:08.366Z,12.80
2019-05-28T19:26:50.874Z,12.70
2019-05-28T19:29:34.295Z,12.70
2019-05-28T19:32:04.326Z,12.70
2019-05-28T19:34:40.990Z,12.70
2019-05-28T19:37:11.558Z,12.70
2019-05-28T19:39:49.331Z,12.80
2019-05-28T19:42:18.995Z,12.80
2019-05-28T19:44:54.766Z,12.80
2019-05-28T19:47:31.307Z,12.80
2019-05-28T19:50:08.117Z,12.60
2019-05-28T19:52:44.229Z,12.50
2019-05-28T19:55:15.441Z,12.60
2019-05-28T19:57:51.745Z,12.50
2019-05-28T20:00:21.945Z,12.50
2019-05-28T20:02:58.747Z,12.70
2019-05-28T20:05:28.415Z,12.60
2019-05-28T20:07:58.026Z,12.70
2019-05-28T20:10:34.549Z,12.60
2019-05-28T20:13:17.060Z,12.60
2019-05-28T20:15:52.659Z,12.70
2019-05-28T20:18:28.855Z,12.60
2019-05-28T20:20:58.404Z,12.60
2019-05-28T20:23:34.168Z,12.60
2019-05-28T20:26:03.756Z,12.60
2019-05-28T20:28:46.408Z,12.60
2019-05-28T20:31:16.006Z,12.60
2019-05-28T20:33:52.008Z,12.60
2019-05-28T20:36:27.707Z,12.60
2019-05-28T20:39:03.669Z,12.50
2019-05-28T20:41:39.596Z,12.50
2019-05-28T20:44:10.302Z,12.50
2019-05-28T20:46:40.082Z,12.50
2019-05-28T20:49:16.642Z,12.50
2019-05-28T20:51:46.421Z,12.40
2019-05-28T20:54:22.322Z,12.50
2019-05-28T20:56:53.497Z,12.50
2019-05-28T20:59:30.088Z,12.40
2019-05-28T21:01:59.543Z,12.40
2019-05-28T21:04:35.255Z,12.50
2019-05-28T21:07:11.936Z,12.40
2019-05-28T21:09:41.741Z,12.40
2019-05-28T21:12:17.737Z,12.40
2019-05-28T21:14:54.867Z,12.40
2019-05-28T21:17:31.263Z,12.40
2019-05-28T21:20:07.279Z,12.30
2019-05-28T21:22:36.964Z,12.30
2019-05-28T21:25:14.756Z,12.30
2019-05-28T21:27:44.267Z,12.30
2019-05-28T21:30:26.881Z,12.30
2019-05-28T21:33:02.964Z,12.30
2019-05-28T21:35:39.699Z,12.40
2019-05-28T21:38:09.247Z,12.40
2019-05-28T21:40:45.330Z,12.20
2019-05-28T21:43:21.823Z,12.30
2019-05-28T21:45:51.976Z,12.40
2019-05-28T21:48:28.569Z,12.30
2019-05-28T21:50:58.769Z,12.30
2019-05-28T21:53:34.778Z,12.30
2019-05-28T21:56:04.306Z,12.30
2019-05-28T21:58:40.509Z,12.50
2019-05-28T22:01:20.515Z,12.40
2019-05-28T22:03:57.275Z,12.40
2019-05-28T22:06:26.771Z,12.40
2019-05-28T22:09:03.906Z,12.40
2019-05-28T22:11:33.456Z,12.30
2019-05-28T22:14:16.120Z,12.40
2019-05-28T22:16:45.582Z,12.40
2019-05-28T22:19:15.265Z,12.40
2019-05-28T22:21:51.023Z,12.40
2019-05-28T22:24:20.550Z,12.40
2019-05-28T22:26:56.988Z,12.30
2019-05-28T22:29:33.468Z,12.30
2019-05-28T22:32:15.686Z,12.30
2019-05-28T22:34:45.134Z,12.30
2019-05-28T22:37:21.081Z,12.30
2019-05-28T22:39:57.300Z,12.20
2019-05-28T22:42:26.745Z,12.10
2019-05-28T22:45:03.184Z,12.10
2019-05-28T22:47:32.725Z,12.10
2019-05-28T22:50:16.675Z,12.00
2019-05-28T22:52:40.381Z,12.00
2019-05-28T22:55:16.429Z,12.00
2019-05-28T22:57:45.942Z,11.90
2019-05-28T23:00:23.623Z,11.90
2019-05-28T23:02:53.070Z,11.90
2019-05-28T23:05:29.453Z,11.80
2019-05-28T23:07:59.338Z,11.80
2019-05-28T23:10:35.002Z,11.70
2019-05-28T23:13:04.944Z,11.70
2019-05-28T23:15:34.491Z,11.70
2019-05-28T23:18:10.983Z,11.60
2019-05-28T23:20:40.449Z,11.50
2019-05-28T23:23:16.238Z,11.60
2019-05-28T23:25:51.771Z,11.60
2019-05-28T23:28:27.516Z,11.50
2019-05-28T23:31:03.808Z,11.40
2019-05-28T23:33:45.559Z,11.40
2019-05-28T23:36:15.021Z,11.40
2019-05-28T23:38:50.748Z,11.40
2019-05-28T23:41:27.244Z,11.40
2019-05-28T23:44:03.843Z,11.40
2019-05-28T23:46:39.980Z,11.40
2019-05-28T23:49:15.579Z,11.40
2019-05-28T23:51:51.962Z,11.40
2019-05-28T23:54:21.470Z,11.30
2019-05-28T23:56:58.053Z,11.30
2019-05-28T23:59:27.488Z,11.30
